createdAt,value
2019-01-21T00:00:53.391Z,40.85
2019-01-21T00:03:33.636Z,41.92
2019-01-21T00:06:13.756Z,45.25
2019-01-21T00:08:53.933Z,39.75
2019-01-21T00:11:35.072Z,43.23
2019-01-21T00:14:15.500Z,43.80
2019-01-21T00:16:55.364Z,42.90
2019-01-21T00:19:35.522Z,41.05
2019-01-21T00:22:15.876Z,42.15
2019-01-21T00:24:56.077Z,42.58
2019-01-21T00:27:36.112Z,40.63
2019-01-21T00:30:16.678Z,39.55
2019-01-21T00:32:57.443Z,41.55
2019-01-21T00:35:37.390Z,43.15
2019-01-21T00:38:17.384Z,41.28
2019-01-21T00:40:57.517Z,40.33
2019-01-21T00:43:37.254Z,41.80
2019-01-21T00:46:17.488Z,40.85
2019-01-21T00:48:57.344Z,38.65
2019-01-21T00:51:37.067Z,40.48
2019-01-21T00:54:17.452Z,41.83
2019-01-21T00:56:56.965Z,40.43
2019-01-21T00:59:36.287Z,40.60
2019-01-21T01:02:16.522Z,39.90
2019-01-21T01:04:58.794Z,41.18
2019-01-21T01:07:38.620Z,41.77
2019-01-21T01:10:18.798Z,38.60
2019-01-21T01:12:58.055Z,38.50
2019-01-21T01:15:38.264Z,37.60
2019-01-21T01:18:18.151Z,37.73
2019-01-21T01:20:58.267Z,38.75
2019-01-21T01:23:38.426Z,38.53
2019-01-21T01:26:18.490Z,38.48
2019-01-21T01:28:58.744Z,40.50
2019-01-21T01:31:38.674Z,37.38
2019-01-21T01:34:17.963Z,39.55
2019-01-21T01:36:58.011Z,39.92
2019-01-21T01:39:38.067Z,40.50
2019-01-21T01:42:18.029Z,40.08
2019-01-21T01:44:58.225Z,37.98
2019-01-21T01:47:44.668Z,38.05
2019-01-21T01:50:20.449Z,39.35
2019-01-21T01:53:00.351Z,38.00
2019-01-21T01:55:40.388Z,38.60
2019-01-21T01:58:20.482Z,38.15
2019-01-21T02:01:00.667Z,38.35
2019-01-21T02:03:40.505Z,38.00
2019-01-21T02:06:20.670Z,39.15
2019-01-21T02:09:00.853Z,37.13
2019-01-21T02:11:40.805Z,37.63
2019-01-21T02:14:20.837Z,37.83
2019-01-21T02:16:58.243Z,37.20
2019-01-21T02:19:56.943Z,36.80
2019-01-21T02:26:11.442Z,36.75
2019-01-21T02:28:51.343Z,39.80
2019-01-21T02:31:31.666Z,39.48
2019-01-21T02:34:11.822Z,37.75
2019-01-21T02:36:51.735Z,38.42
2019-01-21T02:39:31.866Z,38.08
2019-01-21T02:42:11.931Z,39.10
2019-01-21T02:44:51.820Z,39.30
2019-01-21T02:47:32.349Z,37.85
2019-01-21T02:50:12.032Z,39.73
2019-01-21T02:52:52.093Z,38.50
2019-01-21T02:55:32.478Z,37.67
2019-01-21T02:58:12.248Z,38.02
2019-01-21T03:00:52.212Z,35.30
2019-01-21T03:03:32.504Z,39.45
2019-01-21T03:06:12.549Z,39.00
2019-01-21T03:08:52.690Z,36.93
2019-01-21T03:11:31.865Z,37.17
2019-01-21T03:14:11.932Z,38.33
2019-01-21T03:16:51.823Z,35.78
2019-01-21T03:19:31.765Z,38.33
2019-01-21T03:22:12.075Z,34.03
2019-01-21T03:24:51.851Z,38.55
2019-01-21T03:27:31.929Z,36.95
2019-01-21T03:30:12.106Z,36.58
2019-01-21T03:32:52.286Z,37.03
2019-01-21T03:35:31.618Z,37.58
2019-01-21T03:38:11.732Z,38.65
2019-01-21T03:40:51.056Z,35.58
2019-01-21T03:43:31.403Z,36.60
2019-01-21T03:46:11.331Z,38.13
2019-01-21T03:48:50.969Z,36.38
2019-01-21T03:51:30.963Z,37.20
2019-01-21T03:54:10.919Z,36.75
2019-01-21T03:56:50.942Z,38.05
2019-01-21T03:59:30.981Z,37.83
2019-01-21T04:02:11.091Z,35.95
2019-01-21T04:04:51.137Z,37.05
2019-01-21T04:07:31.531Z,35.45
2019-01-21T04:10:11.346Z,34.90
2019-01-21T04:12:51.511Z,34.50
2019-01-21T04:15:31.584Z,34.65
2019-01-21T04:18:11.675Z,35.65
2019-01-21T04:20:51.726Z,34.53
2019-01-21T04:23:31.928Z,36.03
2019-01-21T04:26:12.074Z,34.65
2019-01-21T04:28:52.149Z,36.40
2019-01-21T04:31:32.110Z,35.58
2019-01-21T04:34:12.297Z,35.95
2019-01-21T04:36:52.823Z,35.65
2019-01-21T04:39:32.519Z,36.33
2019-01-21T04:42:12.509Z,35.80
2019-01-21T04:44:51.829Z,33.38
2019-01-21T04:47:31.783Z,34.33
2019-01-21T04:50:12.187Z,34.15
2019-01-21T04:52:52.059Z,34.78
2019-01-21T04:55:31.562Z,32.30
2019-01-21T04:58:40.035Z,36.05
2019-01-21T05:01:46.162Z,32.85
2019-01-21T05:04:26.095Z,33.98
2019-01-21T05:07:06.196Z,33.90
2019-01-21T05:09:47.981Z,35.92
2019-01-21T05:12:27.369Z,34.05
2019-01-21T05:15:07.261Z,33.95
2019-01-21T05:17:47.300Z,33.40
2019-01-21T05:20:27.502Z,33.30
2019-01-21T05:23:08.546Z,32.85
2019-01-21T05:25:48.737Z,36.75
2019-01-21T05:28:28.874Z,34.88
2019-01-21T05:31:08.120Z,32.48
2019-01-21T05:33:47.451Z,30.62
2019-01-21T05:36:27.327Z,35.28
2019-01-21T05:39:07.441Z,32.25
2019-01-21T05:41:47.396Z,32.63
2019-01-21T05:44:27.433Z,33.90
2019-01-21T05:47:08.498Z,32.63
2019-01-21T05:49:48.554Z,35.13
2019-01-21T05:52:28.506Z,35.60
2019-01-21T05:55:08.490Z,33.48
2019-01-21T05:57:48.807Z,34.60
2019-01-21T06:00:28.585Z,31.10
2019-01-21T06:03:08.642Z,31.35
2019-01-21T06:05:48.937Z,32.42
2019-01-21T06:08:29.005Z,31.00
2019-01-21T06:11:08.786Z,29.42
2019-01-21T06:13:49.086Z,30.52
2019-01-21T06:16:28.936Z,28.95
2019-01-21T06:19:09.527Z,31.73
2019-01-21T06:21:48.855Z,28.57
2019-01-21T06:24:29.011Z,29.92
2019-01-21T06:27:09.081Z,29.98
2019-01-21T06:29:49.225Z,29.98
2019-01-21T06:32:29.495Z,30.20
2019-01-21T06:35:09.509Z,28.90
2019-01-21T06:37:49.418Z,28.87
2019-01-21T06:40:29.423Z,27.60
2019-01-21T06:43:09.362Z,28.80
2019-01-21T06:45:49.622Z,27.25
2019-01-21T06:48:29.496Z,28.47
2019-01-21T06:51:08.721Z,28.47
2019-01-21T06:53:48.543Z,28.52
2019-01-21T06:56:29.611Z,28.27
2019-01-21T06:59:10.527Z,30.02
2019-01-21T07:01:50.244Z,26.48
2019-01-21T07:04:29.880Z,27.95
2019-01-21T07:07:09.878Z,28.90
2019-01-21T07:09:50.181Z,27.48
2019-01-21T07:12:30.014Z,26.52
2019-01-21T07:15:10.152Z,27.00
2019-01-21T07:17:50.532Z,26.37
2019-01-21T07:20:30.535Z,27.82
2019-01-21T07:23:09.988Z,27.22
2019-01-21T07:25:50.059Z,28.15
2019-01-21T07:28:30.206Z,25.95
2019-01-21T07:31:09.801Z,27.55
2019-01-21T07:33:52.138Z,26.77
2019-01-21T07:37:00.172Z,26.55
2019-01-21T07:39:40.130Z,27.40
2019-01-21T07:42:20.167Z,26.52
2019-01-21T07:45:00.284Z,25.85
2019-01-21T07:47:40.493Z,24.77
2019-01-21T07:50:20.253Z,26.17
2019-01-21T07:53:00.301Z,28.45
2019-01-21T07:55:40.366Z,28.75
2019-01-21T07:58:20.594Z,29.32
2019-01-21T08:01:00.734Z,28.15
2019-01-21T08:03:40.895Z,26.25
2019-01-21T08:06:20.964Z,26.70
2019-01-21T08:09:00.224Z,28.60
2019-01-21T08:11:40.341Z,28.25
2019-01-21T08:14:20.453Z,27.98
2019-01-21T08:17:00.515Z,28.35
2019-01-21T08:19:40.683Z,29.77
2019-01-21T08:22:20.663Z,30.48
2019-01-21T08:25:00.882Z,28.62
2019-01-21T08:27:41.139Z,30.43
2019-01-21T08:30:21.138Z,31.30
2019-01-21T08:33:01.263Z,30.70
2019-01-21T08:35:41.774Z,30.88
2019-01-21T08:38:21.515Z,30.40
2019-01-21T08:41:01.848Z,29.95
2019-01-21T08:43:41.902Z,29.63
2019-01-21T08:46:24.205Z,31.25
2019-01-21T08:49:03.822Z,31.62
2019-01-21T08:51:44.312Z,31.30
2019-01-21T08:54:24.516Z,31.25
2019-01-21T08:57:04.566Z,33.65
2019-01-21T08:59:44.552Z,32.30
2019-01-21T09:02:24.720Z,35.28
2019-01-21T09:05:04.666Z,36.35
2019-01-21T09:07:44.756Z,35.40
2019-01-21T09:10:24.917Z,31.90
2019-01-21T09:13:04.920Z,31.80
2019-01-21T09:15:45.048Z,31.45
2019-01-21T09:18:25.063Z,32.20
2019-01-21T09:21:05.031Z,33.60
2019-01-21T09:23:45.396Z,32.65
2019-01-21T09:26:25.538Z,35.68
2019-01-21T09:29:05.652Z,34.25
2019-01-21T09:31:45.336Z,36.40
2019-01-21T09:34:25.447Z,33.20
2019-01-21T09:37:05.836Z,32.60
2019-01-21T09:39:45.974Z,35.17
2019-01-21T09:42:25.992Z,33.25
2019-01-21T09:45:05.830Z,34.45
2019-01-21T09:47:45.916Z,36.25
2019-01-21T09:50:26.104Z,32.28
2019-01-21T09:53:06.067Z,33.18
2019-01-21T09:55:46.304Z,35.00
2019-01-21T09:58:27.675Z,37.95
2019-01-21T10:01:08.753Z,32.53
2019-01-21T10:03:48.884Z,32.65
2019-01-21T10:06:29.219Z,34.08
2019-01-21T10:09:09.095Z,36.70
2019-01-21T10:11:49.156Z,36.10
2019-01-21T10:14:29.048Z,33.98
2019-01-21T10:17:09.300Z,35.90
2019-01-21T10:19:50.791Z,33.85
2019-01-21T10:22:30.535Z,36.35
2019-01-21T10:25:10.613Z,37.75
2019-01-21T10:27:50.746Z,35.20
2019-01-21T10:30:30.959Z,35.40
2019-01-21T10:33:10.786Z,32.67
2019-01-21T10:35:51.667Z,36.40
2019-01-21T10:38:31.908Z,32.78
2019-01-21T10:41:11.769Z,33.02
2019-01-21T10:43:51.084Z,35.23
2019-01-21T10:46:31.217Z,34.08
2019-01-21T10:49:11.346Z,32.98
2019-01-21T10:51:51.241Z,31.42
2019-01-21T10:54:31.322Z,33.10
2019-01-21T10:57:11.531Z,36.63
2019-01-21T10:59:51.628Z,32.55
2019-01-21T11:02:32.754Z,31.60
2019-01-21T11:05:12.969Z,32.93
2019-01-21T11:07:52.829Z,32.70
2019-01-21T11:10:32.674Z,32.83
2019-01-21T11:13:13.721Z,33.10
2019-01-21T11:15:53.958Z,33.28
2019-01-21T11:18:34.047Z,33.67
2019-01-21T11:21:14.101Z,32.42
2019-01-21T11:23:54.174Z,35.60
2019-01-21T11:26:34.201Z,31.77
2019-01-21T11:29:14.091Z,33.17
2019-01-21T11:31:54.270Z,31.23
2019-01-21T11:34:34.162Z,30.88
2019-01-21T11:37:14.265Z,32.83
2019-01-21T11:39:54.423Z,29.30
2019-01-21T11:42:34.533Z,29.57
2019-01-21T11:45:18.583Z,28.70
2019-01-21T11:47:56.353Z,28.00
2019-01-21T11:50:37.430Z,28.63
2019-01-21T11:53:17.285Z,28.67
2019-01-21T11:55:57.165Z,29.65
2019-01-21T11:58:36.771Z,25.63
2019-01-21T12:01:16.326Z,31.27
2019-01-21T12:03:56.375Z,27.58
2019-01-21T12:06:36.412Z,28.03
2019-01-21T12:09:16.525Z,28.83
2019-01-21T12:11:56.961Z,31.10
2019-01-21T12:14:36.708Z,31.47
2019-01-21T12:17:16.754Z,29.80
2019-01-21T12:19:56.743Z,30.90
2019-01-21T12:22:36.787Z,30.10
2019-01-21T12:25:17.190Z,29.27
2019-01-21T12:27:56.851Z,26.67
2019-01-21T12:30:36.928Z,27.87
2019-01-21T12:33:17.070Z,29.77
2019-01-21T12:35:57.180Z,31.67
2019-01-21T12:38:36.744Z,30.50
2019-01-21T12:41:21.606Z,29.43
2019-01-21T12:43:58.251Z,28.03
2019-01-21T12:46:39.443Z,28.33
2019-01-21T12:49:20.694Z,30.03
2019-01-21T12:52:00.413Z,27.00
2019-01-21T12:54:40.305Z,26.53
2019-01-21T12:57:20.568Z,27.83
2019-01-21T13:00:00.597Z,27.47
2019-01-21T13:02:40.757Z,29.93
2019-01-21T13:05:20.616Z,33.93
2019-01-21T13:08:00.717Z,28.40
2019-01-21T13:10:40.663Z,30.57
2019-01-21T13:13:20.656Z,43.87
2019-01-21T13:16:00.568Z,25.17
2019-01-21T13:18:40.583Z,37.90
2019-01-21T13:21:20.743Z,27.70
2019-01-21T13:24:00.979Z,25.23
2019-01-21T13:26:41.044Z,29.83
2019-01-21T13:29:21.301Z,26.43
2019-01-21T13:32:01.087Z,28.13
2019-01-21T13:34:41.088Z,28.60
2019-01-21T13:37:20.366Z,25.13
2019-01-21T13:40:26.508Z,24.47
2019-01-21T13:43:06.250Z,25.23
2019-01-21T13:45:45.671Z,26.40
2019-01-21T13:48:26.021Z,24.03
2019-01-21T13:51:05.677Z,24.90
2019-01-21T13:53:45.839Z,25.07
2019-01-21T13:56:26.985Z,24.10
2019-01-21T13:59:07.066Z,25.33
2019-01-21T14:01:47.150Z,22.87
2019-01-21T14:04:27.313Z,24.80
2019-01-21T14:07:07.438Z,24.67
2019-01-21T14:09:47.383Z,24.80
2019-01-21T14:12:27.434Z,23.97
2019-01-21T14:15:07.500Z,24.50
2019-01-21T14:17:47.476Z,22.70
2019-01-21T14:20:27.337Z,23.63
2019-01-21T14:23:07.468Z,24.40
2019-01-21T14:25:47.526Z,22.77
2019-01-21T14:28:27.800Z,22.53
2019-01-21T14:31:07.899Z,23.07
2019-01-21T14:33:47.870Z,24.20
2019-01-21T14:36:28.117Z,23.70
2019-01-21T14:39:08.041Z,24.33
2019-01-21T14:41:47.954Z,26.23
2019-01-21T14:44:28.153Z,23.60
2019-01-21T14:47:08.207Z,27.90
2019-01-21T14:49:48.321Z,26.00
2019-01-21T14:52:28.315Z,24.80
2019-01-21T14:55:08.526Z,27.00
2019-01-21T14:57:48.520Z,23.33
2019-01-21T15:00:28.543Z,24.20
2019-01-21T15:03:08.519Z,23.40
2019-01-21T15:05:48.749Z,23.63
2019-01-21T15:08:28.592Z,23.47
2019-01-21T15:11:08.745Z,23.13
2019-01-21T15:13:48.854Z,23.77
2019-01-21T15:16:28.728Z,21.93
2019-01-21T15:19:08.585Z,22.93
2019-01-21T15:21:48.788Z,23.17
2019-01-21T15:24:28.849Z,22.27
2019-01-21T15:27:09.030Z,22.47
2019-01-21T15:29:49.138Z,21.57
2019-01-21T15:32:28.339Z,23.77
2019-01-21T15:35:08.354Z,23.57
2019-01-21T15:37:48.448Z,24.80
2019-01-21T15:40:28.895Z,21.63
2019-01-21T15:43:08.811Z,22.80
2019-01-21T15:45:51.752Z,24.07
2019-01-21T15:48:31.645Z,24.50
2019-01-21T15:51:11.686Z,24.00
2019-01-21T15:53:52.048Z,23.77
2019-01-21T15:56:31.791Z,23.20
2019-01-21T15:59:12.076Z,24.63
2019-01-21T16:01:51.916Z,22.50
2019-01-21T16:04:31.878Z,21.53
2019-01-21T16:07:11.120Z,24.93
2019-01-21T16:09:51.412Z,25.07
2019-01-21T16:12:31.328Z,25.20
2019-01-21T16:15:11.401Z,27.13
2019-01-21T16:17:51.509Z,24.40
2019-01-21T16:20:31.831Z,39.80
2019-01-21T16:23:11.740Z,41.27
2019-01-21T16:25:52.166Z,30.40
2019-01-21T16:28:32.011Z,25.30
2019-01-21T16:31:12.218Z,25.87
2019-01-21T16:33:53.455Z,27.63
2019-01-21T16:36:59.970Z,26.50
2019-01-21T16:43:13.592Z,25.77
2019-01-21T16:45:54.022Z,29.93
2019-01-21T16:48:33.788Z,26.50
2019-01-21T16:51:20.426Z,26.83
2019-01-21T16:53:57.772Z,35.17
2019-01-21T16:56:37.780Z,57.43
2019-01-21T16:59:18.077Z,46.73
2019-01-21T17:01:57.961Z,37.00
2019-01-21T17:04:38.284Z,33.20
2019-01-21T17:07:18.451Z,31.00
2019-01-21T17:09:58.343Z,26.17
2019-01-21T17:12:38.222Z,27.20
2019-01-21T17:15:18.099Z,27.50
2019-01-21T17:17:58.249Z,25.20
2019-01-21T17:20:38.263Z,24.73
2019-01-21T17:23:18.504Z,25.97
2019-01-21T17:25:58.685Z,24.93
2019-01-21T17:28:38.605Z,26.57
2019-01-21T17:31:18.701Z,24.77
2019-01-21T17:33:58.681Z,24.80
2019-01-21T17:36:38.343Z,25.08
2019-01-21T17:39:18.546Z,24.63
2019-01-21T17:41:58.635Z,25.00
2019-01-21T17:44:38.695Z,24.63
2019-01-21T17:47:18.829Z,26.70
2019-01-21T17:49:59.643Z,24.97
2019-01-21T17:52:39.591Z,26.40
2019-01-21T17:55:19.679Z,26.52
2019-01-21T17:57:59.627Z,26.12
2019-01-21T18:00:39.594Z,25.88
2019-01-21T18:03:19.493Z,26.77
2019-01-21T18:05:59.585Z,27.50
2019-01-21T18:08:39.670Z,25.10
2019-01-21T18:11:19.906Z,28.73
2019-01-21T18:14:00.255Z,25.52
2019-01-21T18:16:40.122Z,25.75
2019-01-21T18:19:20.203Z,24.98
2019-01-21T18:22:00.129Z,24.87
2019-01-21T18:24:40.311Z,25.50
2019-01-21T18:27:20.535Z,24.92
2019-01-21T18:30:02.011Z,24.60
2019-01-21T18:32:43.328Z,25.92
2019-01-21T18:35:22.677Z,26.17
2019-01-21T18:38:03.106Z,26.03
2019-01-21T18:40:42.965Z,25.77
2019-01-21T18:43:23.226Z,26.03
2019-01-21T18:46:03.068Z,26.77
2019-01-21T18:48:42.633Z,27.17
2019-01-21T18:51:22.363Z,27.37
2019-01-21T18:54:01.987Z,26.50
2019-01-21T18:56:42.107Z,25.43
2019-01-21T18:59:22.048Z,25.27
2019-01-21T19:02:01.585Z,25.90
2019-01-21T19:04:41.582Z,26.13
2019-01-21T19:07:22.823Z,24.67
2019-01-21T19:10:03.144Z,26.17
2019-01-21T19:12:44.871Z,25.70
2019-01-21T19:15:25.857Z,24.90
2019-01-21T19:18:05.422Z,26.80
2019-01-21T19:20:45.247Z,24.70
2019-01-21T19:23:25.464Z,26.07
2019-01-21T19:26:05.949Z,26.37
2019-01-21T19:28:45.723Z,25.85
2019-01-21T19:31:25.688Z,26.83
2019-01-21T19:34:05.744Z,26.27
2019-01-21T19:36:45.715Z,27.00
2019-01-21T19:39:26.445Z,27.60
2019-01-21T19:42:05.943Z,27.07
2019-01-21T19:44:45.713Z,27.10
2019-01-21T19:47:25.692Z,27.13
2019-01-21T19:50:05.864Z,28.90
2019-01-21T19:52:46.018Z,29.27
2019-01-21T19:55:26.266Z,26.87
2019-01-21T19:58:06.007Z,28.07
2019-01-21T20:00:46.121Z,27.83
2019-01-21T20:03:26.089Z,27.73
2019-01-21T20:06:06.297Z,26.27
2019-01-21T20:08:46.342Z,26.40
2019-01-21T20:11:26.499Z,27.60
2019-01-21T20:14:06.260Z,27.90
2019-01-21T20:16:46.111Z,28.67
2019-01-21T20:19:25.682Z,27.63
2019-01-21T20:22:07.949Z,26.30
2019-01-21T20:24:47.431Z,32.90
2019-01-21T20:27:27.505Z,29.70
2019-01-21T20:30:07.455Z,28.27
2019-01-21T20:32:47.535Z,26.37
2019-01-21T20:35:27.628Z,26.93
2019-01-21T20:38:07.759Z,26.43
2019-01-21T20:40:48.052Z,24.23
2019-01-21T20:43:28.460Z,26.27
2019-01-21T20:46:08.395Z,26.33
2019-01-21T20:48:48.477Z,28.13
2019-01-21T20:51:28.358Z,27.43
2019-01-21T20:54:08.520Z,27.50
2019-01-21T20:56:49.892Z,26.13
2019-01-21T20:59:29.566Z,28.33
2019-01-21T21:02:09.650Z,25.90
2019-01-21T21:04:48.980Z,27.07
2019-01-21T21:07:29.001Z,30.67
2019-01-21T21:10:09.145Z,32.57
2019-01-21T21:12:49.394Z,26.40
2019-01-21T21:15:32.783Z,28.93
2019-01-21T21:18:13.274Z,26.20
2019-01-21T21:20:53.347Z,31.13
2019-01-21T21:23:32.988Z,29.67
2019-01-21T21:26:13.248Z,29.97
2019-01-21T21:28:53.073Z,27.67
2019-01-21T21:31:32.811Z,28.17
2019-01-21T21:34:12.744Z,28.40
2019-01-21T21:36:53.178Z,27.70
2019-01-21T21:39:32.855Z,28.10
2019-01-21T21:42:13.071Z,26.53
2019-01-21T21:44:53.008Z,27.53
2019-01-21T21:47:33.145Z,27.73
2019-01-21T21:50:13.016Z,29.13
2019-01-21T21:52:53.043Z,26.80
2019-01-21T21:55:33.312Z,26.80
2019-01-21T21:58:13.442Z,27.53
2019-01-21T22:00:53.548Z,28.57
2019-01-21T22:03:33.784Z,27.70
2019-01-21T22:06:13.890Z,28.90
2019-01-21T22:08:54.018Z,26.97
2019-01-21T22:11:34.061Z,27.60
2019-01-21T22:14:15.327Z,27.60
2019-01-21T22:16:55.780Z,28.10
2019-01-21T22:19:35.629Z,28.27
2019-01-21T22:22:19.932Z,27.47
2019-01-21T22:25:02.130Z,27.63
2019-01-21T22:27:41.949Z,29.53
2019-01-21T22:30:21.953Z,27.20
2019-01-21T22:33:01.922Z,26.40
2019-01-21T22:35:41.912Z,28.47
2019-01-21T22:38:21.924Z,27.50
2019-01-21T22:41:01.951Z,28.13
2019-01-21T22:43:42.040Z,28.03
2019-01-21T22:46:22.421Z,27.50
2019-01-21T22:49:02.535Z,27.20
2019-01-21T22:51:41.774Z,27.03
2019-01-21T22:54:21.620Z,27.45
2019-01-21T22:57:01.544Z,27.45
2019-01-21T22:59:41.814Z,26.57
2019-01-21T23:02:21.558Z,27.57
2019-01-21T23:05:01.735Z,27.67
2019-01-21T23:07:41.768Z,27.53
2019-01-21T23:10:22.138Z,26.67
2019-01-21T23:13:01.762Z,26.80
2019-01-21T23:15:41.704Z,28.63
2019-01-21T23:18:21.573Z,26.67
2019-01-21T23:21:01.915Z,28.43
2019-01-21T23:23:41.474Z,26.60
2019-01-21T23:26:22.566Z,26.40
2019-01-21T23:29:02.674Z,27.73
2019-01-21T23:31:43.851Z,27.83
2019-01-21T23:34:23.914Z,27.40
2019-01-21T23:37:04.015Z,28.80
2019-01-21T23:39:44.125Z,26.23
2019-01-21T23:42:24.561Z,27.20
2019-01-21T23:45:04.407Z,27.37
2019-01-21T23:47:44.296Z,27.97
2019-01-21T23:50:24.007Z,27.60
2019-01-21T23:53:03.673Z,26.83
2019-01-21T23:55:43.793Z,26.80
2019-01-21T23:58:23.866Z,27.13
